createdAt,value
2023-11-13T00:01:17.392Z,7.72
2023-11-13T00:03:44.371Z,6.78
2023-11-13T00:06:11.210Z,7.25
2023-11-13T00:08:37.712Z,6.05
2023-11-13T00:11:05.268Z,5.78
2023-11-13T00:13:31.807Z,5.88
2023-11-13T00:15:58.797Z,5.75
2023-11-13T00:18:27.023Z,5.93
2023-11-13T00:20:53.611Z,7.03
2023-11-13T00:23:20.138Z,5.97
2023-11-13T00:25:46.724Z,6.20
2023-11-13T00:28:13.502Z,7.63
2023-11-13T00:30:40.273Z,7.20
2023-11-13T00:33:07.462Z,5.78
2023-11-13T00:35:34.440Z,5.43
2023-11-13T00:38:01.253Z,6.90
2023-11-13T00:40:28.814Z,5.30
2023-11-13T00:42:55.407Z,7.05
2023-11-13T00:45:21.869Z,8.35
2023-11-13T00:47:48.977Z,5.93
2023-11-13T00:50:15.535Z,6.95
2023-11-13T00:52:41.972Z,7.30
2023-11-13T00:55:10.458Z,7.03
2023-11-13T00:57:37.169Z,5.78
2023-11-13T01:00:05.532Z,7.13
2023-11-13T01:02:32.055Z,6.13
2023-11-13T01:04:58.598Z,6.78
2023-11-13T01:07:26.849Z,7.63
2023-11-13T01:09:53.475Z,4.80
2023-11-13T01:12:21.535Z,5.50
2023-11-13T01:14:48.148Z,7.53
2023-11-13T01:17:14.675Z,5.70
2023-11-13T01:19:41.403Z,5.38
2023-11-13T01:22:07.963Z,5.25
2023-11-13T01:24:34.623Z,4.60
2023-11-13T01:27:01.126Z,6.72
2023-11-13T01:29:27.626Z,4.53
2023-11-13T01:31:54.113Z,5.93
2023-11-13T01:34:21.246Z,5.53
2023-11-13T01:36:47.964Z,6.28
2023-11-13T01:39:14.453Z,5.68
2023-11-13T01:41:43.520Z,5.47
2023-11-13T01:44:10.208Z,6.72
2023-11-13T01:46:37.150Z,6.30
2023-11-13T01:49:05.655Z,7.53
2023-11-13T01:51:33.664Z,5.40
2023-11-13T01:54:01.068Z,4.50
2023-11-13T01:56:28.841Z,4.93
2023-11-13T01:58:57.099Z,4.78
2023-11-13T02:01:26.803Z,4.18
2023-11-13T02:03:54.108Z,4.90
2023-11-13T02:06:21.642Z,6.38
2023-11-13T02:08:48.070Z,5.70
2023-11-13T02:11:16.266Z,5.38
2023-11-13T02:13:45.346Z,5.57
2023-11-13T02:16:13.662Z,4.25
2023-11-13T02:18:41.278Z,6.65
2023-11-13T02:21:08.281Z,5.43
2023-11-13T02:23:34.766Z,6.53
2023-11-13T02:26:07.653Z,5.80
2023-11-13T02:28:34.141Z,6.47
2023-11-13T02:31:00.728Z,5.95
2023-11-13T02:33:27.343Z,4.32
2023-11-13T02:35:53.889Z,4.93
2023-11-13T02:38:20.336Z,5.32
2023-11-13T02:40:46.791Z,4.88
2023-11-13T02:43:13.433Z,4.88
2023-11-13T02:45:41.447Z,5.95
2023-11-13T02:48:08.024Z,4.60
2023-11-13T02:50:34.762Z,6.53
2023-11-13T02:53:01.323Z,4.13
2023-11-13T02:55:28.140Z,4.70
2023-11-13T02:57:55.459Z,5.80
2023-11-13T03:00:22.622Z,4.72
2023-11-13T03:02:49.220Z,4.90
2023-11-13T03:05:17.769Z,3.72
2023-11-13T03:07:44.841Z,6.53
2023-11-13T03:10:11.887Z,4.15
2023-11-13T03:12:41.744Z,5.60
2023-11-13T03:15:10.683Z,4.82
2023-11-13T03:17:37.265Z,4.75
2023-11-13T03:20:04.797Z,6.20
2023-11-13T03:22:31.297Z,5.50
2023-11-13T03:24:57.930Z,3.58
2023-11-13T03:27:24.513Z,3.80
2023-11-13T03:29:51.686Z,4.55
2023-11-13T03:32:19.068Z,6.72
2023-11-13T03:34:46.087Z,3.88
2023-11-13T03:37:12.553Z,4.63
2023-11-13T03:39:38.991Z,3.70
2023-11-13T03:42:05.704Z,5.03
2023-11-13T03:44:32.199Z,4.80
2023-11-13T03:46:58.662Z,5.15
2023-11-13T03:49:25.219Z,5.30
2023-11-13T03:51:51.802Z,4.47
2023-11-13T03:54:18.304Z,5.05
2023-11-13T03:56:44.729Z,5.22
2023-11-13T03:59:11.532Z,3.83
2023-11-13T04:01:38.465Z,5.55
2023-11-13T04:04:05.643Z,4.43
2023-11-13T04:06:32.278Z,6.03
2023-11-13T04:08:58.767Z,3.88
2023-11-13T04:11:25.341Z,4.47
2023-11-13T04:13:51.987Z,4.47
2023-11-13T04:16:18.683Z,3.63
2023-11-13T04:18:45.182Z,5.32
2023-11-13T04:21:11.648Z,3.78
2023-11-13T04:23:38.402Z,3.30
2023-11-13T04:26:06.225Z,3.80
2023-11-13T04:28:36.434Z,3.40
2023-11-13T04:31:05.011Z,2.75
2023-11-13T04:33:31.634Z,3.38
2023-11-13T04:36:02.559Z,4.70
2023-11-13T04:38:29.375Z,3.78
2023-11-13T04:40:55.812Z,3.90
2023-11-13T04:43:22.313Z,5.00
2023-11-13T04:45:48.973Z,3.72
2023-11-13T04:48:15.500Z,5.15
2023-11-13T04:50:42.057Z,3.03
2023-11-13T04:53:08.637Z,3.65
2023-11-13T04:55:35.218Z,4.15
2023-11-13T04:58:03.281Z,4.20
2023-11-13T05:00:29.767Z,3.47
2023-11-13T05:02:56.397Z,4.63
2023-11-13T05:05:23.152Z,4.45
2023-11-13T05:07:49.699Z,3.38
2023-11-13T05:10:16.339Z,3.42
2023-11-13T05:12:42.852Z,4.15
2023-11-13T05:15:10.358Z,3.80
2023-11-13T05:17:39.385Z,4.82
2023-11-13T05:20:07.811Z,4.35
2023-11-13T05:22:34.574Z,3.90
2023-11-13T05:25:01.630Z,3.92
2023-11-13T05:27:28.045Z,4.15
2023-11-13T05:29:54.558Z,4.50
2023-11-13T05:32:21.068Z,3.97
2023-11-13T05:34:47.588Z,3.90
2023-11-13T05:37:14.248Z,3.10
2023-11-13T05:39:40.742Z,3.15
2023-11-13T05:42:08.024Z,2.88
2023-11-13T05:44:37.212Z,4.28
2023-11-13T05:47:05.150Z,3.75
2023-11-13T05:49:34.835Z,3.58
2023-11-13T05:52:01.858Z,4.13
2023-11-13T05:54:29.154Z,4.15
2023-11-13T05:56:56.286Z,2.92
2023-11-13T05:59:22.878Z,4.30
2023-11-13T06:01:50.617Z,3.10
2023-11-13T06:04:17.848Z,3.33
2023-11-13T06:06:47.575Z,4.05
2023-11-13T06:09:14.346Z,2.92
2023-11-13T06:11:40.851Z,2.97
2023-11-13T06:14:08.176Z,2.70
2023-11-13T06:16:35.220Z,4.72
2023-11-13T06:19:03.093Z,3.75
2023-11-13T06:21:29.755Z,2.80
2023-11-13T06:23:56.209Z,2.72
2023-11-13T06:26:22.664Z,4.32
2023-11-13T06:28:49.478Z,2.97
2023-11-13T06:31:17.916Z,2.97
2023-11-13T06:33:44.679Z,3.20
2023-11-13T06:36:11.339Z,4.25
2023-11-13T06:38:38.513Z,3.60
2023-11-13T06:41:05.886Z,2.38
2023-11-13T06:43:33.124Z,3.58
2023-11-13T06:46:00.115Z,3.47
2023-11-13T06:48:26.811Z,3.33
2023-11-13T06:50:53.561Z,2.97
2023-11-13T06:53:20.140Z,2.60
2023-11-13T06:55:46.656Z,3.10
2023-11-13T06:58:13.205Z,3.15
2023-11-13T07:00:39.757Z,3.45
2023-11-13T07:03:06.367Z,3.38
2023-11-13T07:05:32.887Z,4.07
2023-11-13T07:08:00.321Z,3.42
2023-11-13T07:10:27.716Z,3.13
2023-11-13T07:12:54.778Z,2.83
2023-11-13T07:15:21.263Z,3.33
2023-11-13T07:17:47.960Z,3.75
2023-11-13T07:20:15.027Z,2.17
2023-11-13T07:22:41.626Z,3.15
2023-11-13T07:25:08.814Z,3.45
2023-11-13T07:27:35.374Z,3.58
2023-11-13T07:30:02.370Z,2.90
2023-11-13T07:32:28.868Z,4.82
2023-11-13T07:34:55.600Z,4.40
2023-11-13T07:37:25.013Z,3.05
2023-11-13T07:39:52.265Z,4.68
2023-11-13T07:42:19.434Z,2.78
2023-11-13T07:44:50.503Z,2.83
2023-11-13T07:47:18.003Z,1.85
2023-11-13T07:49:45.373Z,2.58
2023-11-13T07:52:14.023Z,3.17
2023-11-13T07:54:43.683Z,4.25
2023-11-13T07:57:10.806Z,3.78
2023-11-13T07:59:38.660Z,2.65
2023-11-13T08:02:05.598Z,3.22
2023-11-13T08:04:32.724Z,4.53
2023-11-13T08:07:00.965Z,4.13
2023-11-13T08:09:29.100Z,4.03
2023-11-13T08:11:55.535Z,2.63
2023-11-13T08:14:24.218Z,3.20
2023-11-13T08:16:51.598Z,2.15
2023-11-13T08:19:18.063Z,1.90
2023-11-13T08:21:44.848Z,2.88
2023-11-13T08:24:12.542Z,5.68
2023-11-13T08:26:39.151Z,1.77
2023-11-13T08:29:05.677Z,2.45
2023-11-13T08:31:32.329Z,2.53
2023-11-13T08:33:59.213Z,2.70
2023-11-13T08:36:29.111Z,2.33
2023-11-13T08:38:56.035Z,1.70
2023-11-13T08:41:23.129Z,1.45
2023-11-13T08:43:49.701Z,2.55
2023-11-13T08:46:16.436Z,2.50
2023-11-13T08:48:42.965Z,2.80
2023-11-13T08:51:09.419Z,2.75
2023-11-13T08:53:43.626Z,1.90
2023-11-13T08:58:43.686Z,1.80
2023-11-13T09:01:10.796Z,1.65
2023-11-13T09:03:38.878Z,1.83
2023-11-13T09:06:10.154Z,2.15
2023-11-13T09:08:37.894Z,1.75
2023-11-13T09:11:06.177Z,2.80
2023-11-13T09:13:32.651Z,2.80
2023-11-13T09:15:59.200Z,1.58
2023-11-13T09:18:28.124Z,2.58
2023-11-13T09:20:55.947Z,1.77
2023-11-13T09:23:23.319Z,2.10
2023-11-13T09:25:49.801Z,2.83
2023-11-13T09:28:16.913Z,0.90
2023-11-13T09:30:43.359Z,1.40
2023-11-13T09:33:11.823Z,1.92
2023-11-13T09:35:38.658Z,2.15
2023-11-13T09:38:09.708Z,1.73
2023-11-13T09:40:36.576Z,1.27
2023-11-13T09:43:20.513Z,1.92
2023-11-13T09:45:48.633Z,1.55
2023-11-13T09:48:24.726Z,1.23
2023-11-13T09:50:51.413Z,1.88
2023-11-13T09:53:20.687Z,1.45
2023-11-13T09:55:48.130Z,2.70
2023-11-13T09:58:14.935Z,2.13
2023-11-13T10:00:41.961Z,1.38
2023-11-13T10:03:15.079Z,2.05
2023-11-13T10:05:43.203Z,2.45
2023-11-13T10:08:10.008Z,2.63
2023-11-13T10:10:41.057Z,1.52
2023-11-13T10:13:11.665Z,1.67
2023-11-13T10:15:42.314Z,2.72
2023-11-13T10:18:09.810Z,1.23
2023-11-13T10:20:54.469Z,1.23
2023-11-13T10:25:54.589Z,1.77
2023-11-13T10:28:25.366Z,1.67
2023-11-13T10:30:51.987Z,1.73
2023-11-13T10:33:19.429Z,1.92
2023-11-13T10:35:49.412Z,1.05
2023-11-13T10:38:16.081Z,0.90
2023-11-13T10:40:47.334Z,2.45
2023-11-13T10:43:31.923Z,1.02
2023-11-13T10:46:00.442Z,1.67
2023-11-13T10:48:34.705Z,0.93
2023-11-13T10:51:05.761Z,0.93
2023-11-13T10:53:40.579Z,1.15
2023-11-13T10:56:09.164Z,2.35
2023-11-13T10:58:35.701Z,0.52
2023-11-13T11:01:11.621Z,0.45
2023-11-13T11:03:46.080Z,1.40
2023-11-13T11:06:17.775Z,2.15
2023-11-13T11:08:45.599Z,1.67
2023-11-13T11:11:16.254Z,0.80
2023-11-13T11:13:55.513Z,1.88
2023-11-13T11:16:34.240Z,1.52
2023-11-13T11:19:18.881Z,1.17
2023-11-13T11:24:56.396Z,1.67
2023-11-13T11:27:38.853Z,2.20
2023-11-13T11:30:23.861Z,1.40
2023-11-13T11:32:58.143Z,1.17
2023-11-13T11:38:27.602Z,0.95
2023-11-13T11:40:55.108Z,2.25
2023-11-13T11:43:23.721Z,1.25
2023-11-13T11:45:53.854Z,1.20
2023-11-13T11:48:22.869Z,1.05
2023-11-13T11:51:37.181Z,1.40
2023-11-13T11:54:05.003Z,1.08
2023-11-13T11:56:31.615Z,2.92
2023-11-13T11:58:58.100Z,1.25
2023-11-13T12:01:27.340Z,0.88
2023-11-13T12:03:54.631Z,1.02
2023-11-13T12:06:21.964Z,2.20
2023-11-13T12:08:50.482Z,1.33
2023-11-13T12:11:20.837Z,1.85
2023-11-13T12:13:47.460Z,0.88
2023-11-13T12:16:15.627Z,0.68
2023-11-13T12:18:42.181Z,3.97
2023-11-13T12:21:09.876Z,0.95
2023-11-13T12:23:36.520Z,1.55
2023-11-13T12:26:04.696Z,1.27
2023-11-13T12:28:31.156Z,0.63
2023-11-13T12:30:57.830Z,1.00
2023-11-13T12:33:24.434Z,2.17
2023-11-13T12:35:57.635Z,1.13
2023-11-13T14:58:50.731Z,2.83
2023-11-13T15:01:17.459Z,1.10
2023-11-13T15:03:46.013Z,3.47
2023-11-13T15:06:12.688Z,3.47
2023-11-13T15:08:39.116Z,1.42
2023-11-13T15:11:09.260Z,1.00
2023-11-13T15:13:35.750Z,1.55
2023-11-13T15:16:05.402Z,1.77
2023-11-13T15:18:42.503Z,2.72
2023-11-13T15:21:14.344Z,1.48
2023-11-13T15:23:46.496Z,2.83
2023-11-13T15:28:26.755Z,11.07
2023-11-13T15:30:53.460Z,12.80
2023-11-13T15:33:20.300Z,10.18
2023-11-13T15:35:46.961Z,6.40
2023-11-13T15:38:16.340Z,7.47
2023-11-13T15:40:43.316Z,10.60
2023-11-13T15:43:10.061Z,8.00
2023-11-13T15:45:37.204Z,7.43
2023-11-13T15:48:05.632Z,4.05
2023-11-13T15:59:00.517Z,19.63
2023-11-13T16:03:16.868Z,26.75
2023-11-13T16:05:43.417Z,25.40
2023-11-13T16:08:11.405Z,28.73
2023-11-13T16:10:39.486Z,17.35
2023-11-13T16:13:05.996Z,22.65
2023-11-13T16:15:32.451Z,19.35
2023-11-13T16:17:59.051Z,17.10
2023-11-13T16:20:25.723Z,18.77
2023-11-13T16:22:53.875Z,19.83
2023-11-13T16:25:20.753Z,15.32
2023-11-13T16:27:47.294Z,17.30
2023-11-13T16:30:13.932Z,13.77
2023-11-13T16:32:41.226Z,13.65
2023-11-13T16:35:09.801Z,12.10
2023-11-13T16:37:38.672Z,15.82
2023-11-13T16:40:10.433Z,10.02
2023-11-13T16:42:38.204Z,12.93
2023-11-13T16:45:05.896Z,16.48
2023-11-13T16:47:33.988Z,18.35
2023-11-13T16:50:00.454Z,10.40
2023-11-13T16:52:26.892Z,11.75
2023-11-13T16:54:53.347Z,10.25
2023-11-13T16:57:20.696Z,11.45
2023-11-13T16:59:47.184Z,6.25
2023-11-13T17:02:15.098Z,6.72
2023-11-13T17:04:42.037Z,5.55
2023-11-13T17:07:09.283Z,7.35
2023-11-13T17:09:35.779Z,7.78
2023-11-13T17:12:02.248Z,4.47
2023-11-13T17:14:29.489Z,8.90
2023-11-13T17:16:56.067Z,8.85
2023-11-13T17:19:22.650Z,9.23
2023-11-13T17:21:50.299Z,6.45
2023-11-13T17:24:17.896Z,5.82
2023-11-13T17:26:45.277Z,5.82
2023-11-13T17:29:11.736Z,6.47
2023-11-13T17:31:38.252Z,6.20
2023-11-13T17:34:05.172Z,6.00
2023-11-13T17:36:33.513Z,4.55
2023-11-13T17:39:00.092Z,7.38
2023-11-13T17:41:26.677Z,4.53
2023-11-13T17:43:53.432Z,3.13
2023-11-13T17:46:20.144Z,2.67
2023-11-13T17:48:46.786Z,2.67
2023-11-13T17:51:13.667Z,4.72
2023-11-13T17:53:40.602Z,4.20
2023-11-13T17:56:07.347Z,6.28
2023-11-13T17:58:33.892Z,7.18
2023-11-13T18:01:00.440Z,4.07
2023-11-13T18:03:27.015Z,4.05
2023-11-13T18:05:54.694Z,7.00
2023-11-13T18:08:23.766Z,5.38
2023-11-13T18:10:51.750Z,3.63
2023-11-13T18:13:18.463Z,3.10
2023-11-13T18:15:44.895Z,3.10
2023-11-13T18:18:11.922Z,4.43
2023-11-13T18:20:38.899Z,2.80
2023-11-13T18:23:06.694Z,5.13
2023-11-13T18:25:33.785Z,5.57
2023-11-13T18:28:00.259Z,2.85
2023-11-13T18:30:27.109Z,4.93
2023-11-13T18:32:53.647Z,2.95
2023-11-13T18:35:20.191Z,4.65
2023-11-13T18:37:50.412Z,3.88
2023-11-13T18:40:16.990Z,2.55
2023-11-13T18:42:44.239Z,1.90
2023-11-13T18:45:11.486Z,4.60
2023-11-13T18:47:38.499Z,4.25
2023-11-13T18:50:07.437Z,2.65
2023-11-13T18:52:34.146Z,2.60
2023-11-13T18:55:01.600Z,3.47
2023-11-13T18:57:28.433Z,4.15
2023-11-13T18:59:54.928Z,5.35
2023-11-13T19:02:21.439Z,3.20
2023-11-13T19:04:48.008Z,4.30
2023-11-13T19:07:15.537Z,4.47
2023-11-13T19:09:42.121Z,2.50
2023-11-13T19:12:08.848Z,4.50
2023-11-13T19:14:35.424Z,2.58
2023-11-13T19:17:04.375Z,3.65
2023-11-13T19:19:30.892Z,3.30
2023-11-13T19:21:57.534Z,3.00
2023-11-13T19:24:24.096Z,3.63
2023-11-13T19:26:50.529Z,2.45
2023-11-13T19:29:22.453Z,1.63
2023-11-13T19:31:50.749Z,1.55
2023-11-13T19:34:18.979Z,3.28
2023-11-13T19:36:46.600Z,1.00
2023-11-13T19:39:14.192Z,2.85
2023-11-13T19:41:41.895Z,3.22
2023-11-13T19:44:08.346Z,2.33
2023-11-13T19:46:34.823Z,3.40
2023-11-13T19:49:01.253Z,1.83
2023-11-13T19:51:27.693Z,3.70
2023-11-13T19:53:54.780Z,2.63
2023-11-13T19:56:21.235Z,2.78
2023-11-13T19:58:48.217Z,4.88
2023-11-13T20:01:14.792Z,3.38
2023-11-13T20:03:41.360Z,4.05
2023-11-13T20:06:07.905Z,2.50
2023-11-13T20:08:36.137Z,2.80
2023-11-13T20:11:04.056Z,1.50
2023-11-13T20:13:30.589Z,2.50
2023-11-13T20:15:57.137Z,3.20
2023-11-13T20:18:33.207Z,1.02
2023-11-13T20:21:06.534Z,2.25
2023-11-13T20:23:33.021Z,0.98
2023-11-13T20:25:59.765Z,2.45
2023-11-13T20:28:26.930Z,1.65
2023-11-13T20:30:53.615Z,1.75
2023-11-13T20:33:20.286Z,1.83
2023-11-13T20:35:48.721Z,0.77
2023-11-13T20:38:16.385Z,4.40
2023-11-13T20:40:43.728Z,1.25
2023-11-13T20:43:11.187Z,1.67
2023-11-13T20:45:38.855Z,1.60
2023-11-13T20:48:09.705Z,3.42
2023-11-13T20:50:36.733Z,2.80
2023-11-13T20:53:03.592Z,2.65
2023-11-13T20:55:30.119Z,2.17
2023-11-13T20:57:56.616Z,3.03
2023-11-13T21:00:23.738Z,3.63
2023-11-13T21:02:50.435Z,2.17
2023-11-13T21:05:19.657Z,2.97
2023-11-13T21:07:46.318Z,2.38
2023-11-13T21:10:14.277Z,2.03
2023-11-13T21:12:41.006Z,2.47
2023-11-13T21:15:09.167Z,3.60
2023-11-13T21:17:35.683Z,2.92
2023-11-13T21:20:04.504Z,2.13
2023-11-13T21:22:30.978Z,1.35
2023-11-13T21:24:57.459Z,4.22
2023-11-13T21:27:23.885Z,2.13
2023-11-13T21:29:50.396Z,4.13
2023-11-13T21:32:16.915Z,3.75
2023-11-13T21:34:43.481Z,4.72
2023-11-13T21:37:09.925Z,3.35
2023-11-13T21:39:36.401Z,7.60
2023-11-13T21:42:02.943Z,3.03
2023-11-13T21:44:29.562Z,3.65
2023-11-13T21:46:56.398Z,2.85
2023-11-13T21:49:22.862Z,2.58
2023-11-13T21:51:49.388Z,4.45
2023-11-13T21:54:15.787Z,4.57
2023-11-13T21:56:42.472Z,3.20
2023-11-13T21:59:08.902Z,1.98
2023-11-13T22:01:37.299Z,1.83
2023-11-13T22:04:04.610Z,4.43
2023-11-13T22:06:31.618Z,3.90
2023-11-13T22:08:58.060Z,1.40
2023-11-13T22:11:25.143Z,1.75
2023-11-13T22:13:51.818Z,4.78
2023-11-13T22:16:18.401Z,3.13
2023-11-13T22:18:44.895Z,1.42
2023-11-13T22:21:11.327Z,2.85
2023-11-13T22:23:37.792Z,3.35
2023-11-13T22:26:04.629Z,3.47
2023-11-13T22:28:31.451Z,4.03
2023-11-13T22:30:57.994Z,3.05
2023-11-13T22:33:24.603Z,4.30
2023-11-13T22:35:51.066Z,3.80
2023-11-13T22:38:17.829Z,2.45
2023-11-13T22:40:44.559Z,1.30
2023-11-13T22:43:11.200Z,1.48
2023-11-13T22:45:37.763Z,1.75
2023-11-13T22:48:05.340Z,1.65
2023-11-13T22:50:32.014Z,2.25
2023-11-13T22:52:58.499Z,2.15
2023-11-13T22:55:25.187Z,2.65
2023-11-13T22:57:52.154Z,2.25
2023-11-13T23:00:22.058Z,2.55
2023-11-13T23:02:48.684Z,3.80
2023-11-13T23:05:15.486Z,3.03
2023-11-13T23:07:44.516Z,3.15
2023-11-13T23:10:11.731Z,2.78
2023-11-13T23:12:38.182Z,4.35
2023-11-13T23:15:05.609Z,5.05
2023-11-13T23:17:32.113Z,2.28
2023-11-13T23:19:58.687Z,1.42
2023-11-13T23:22:25.185Z,3.55
2023-11-13T23:24:51.635Z,2.83
2023-11-13T23:27:18.310Z,1.33
2023-11-13T23:29:44.797Z,2.45
2023-11-13T23:32:11.417Z,0.65
2023-11-13T23:34:37.963Z,1.35
2023-11-13T23:37:07.771Z,2.55
2023-11-13T23:39:34.755Z,2.05
2023-11-13T23:42:01.153Z,2.92
2023-11-13T23:44:27.624Z,3.90
2023-11-13T23:46:54.224Z,2.83
2023-11-13T23:49:21.499Z,4.80
2023-11-13T23:51:48.010Z,2.78
2023-11-13T23:54:14.483Z,1.92
2023-11-13T23:56:40.933Z,2.38
2023-11-13T23:59:08.037Z,2.00
